Time;durP1;ratioP1;P1;durP2;ratioP2;P2;SDS_P1;SDS_P2;PMS_P1;PMS_P2;Temp;Humidity;BMP_temperature;BMP_pressure;BME280_temperature;BME280_humidity;BME280_pressure;Samples;Min_cycle;Max_cycle;Signal;HPM_P1;HPM_P2
2023/10/18 00:01:15;;;;;;;;;75.75;59.50;;;;;9.68;47.25;99566.50;5108235;28;8973;-74
2023/10/18 00:03:44;;;;;;;;;71.50;56.75;;;;;9.63;47.15;99563.13;5108206;28;9593;-73
2023/10/18 00:06:15;;;;;;;;;77.50;60.50;;;;;9.56;47.44;99575.41;5126114;27;8855;-76
2023/10/18 00:08:46;;;;;;;;;70.00;55.67;;;;;9.34;48.14;99581.91;5128970;27;8827;-74
2023/10/18 00:11:15;;;;;;;;;74.00;60.00;;;;;9.21;48.12;99579.47;5125286;27;9100;-75
2023/10/18 00:13:49;;;;;;;;;71.33;55.33;;;;;9.21;48.47;99574.22;5108337;28;9168;-74
2023/10/18 00:16:18;;;;;;;;;71.00;58.50;;;;;9.25;48.29;99569.78;5050196;28;9189;-75
2023/10/18 00:18:47;;;;;;;;;72.75;59.25;;;;;9.21;48.31;99565.47;5097436;28;8852;-77
2023/10/18 00:21:17;;;;;;;;;70.00;55.00;;;;;9.11;48.60;99572.63;5107762;28;8839;-76
2023/10/18 00:23:46;;;;;;;;;71.25;56.00;;;;;9.17;48.38;99564.66;5107991;28;8832;-74
2023/10/18 00:26:15;;;;;;;;;70.00;55.50;;;;;9.20;48.50;99576.88;5056162;28;8875;-75
2023/10/18 00:28:50;;;;;;;;;67.75;53.75;;;;;9.25;48.56;99572.41;5090718;28;8848;-76
2023/10/18 00:31:21;;;;;;;;;68.00;55.75;;;;;9.33;48.30;99574.91;5056814;28;8858;-76
2023/10/18 00:33:50;;;;;;;;;71.25;54.25;;;;;9.38;48.41;99575.72;5074818;28;8978;-75
2023/10/18 00:36:19;;;;;;;;;67.50;54.00;;;;;9.41;48.05;99570.44;5090548;28;9757;-76
2023/10/18 00:38:48;;;;;;;;;71.00;55.50;;;;;9.41;48.15;99568.66;5107427;28;8867;-72
2023/10/18 00:41:21;;;;;;;;;62.25;51.75;;;;;9.31;48.26;99572.34;5090632;28;8851;-76
2023/10/18 00:43:53;;;;;;;;;68.00;53.50;;;;;9.10;48.97;99581.38;5072436;28;9604;-75
2023/10/18 00:46:23;;;;;;;;;66.75;53.75;;;;;8.94;49.00;99578.09;5107293;28;8852;-74
2023/10/18 00:48:52;;;;;;;;;62.50;50.75;;;;;8.93;49.70;99589.50;5107540;28;8843;-73
2023/10/18 00:51:24;;;;;;;;;62.75;50.50;;;;;8.94;49.31;99577.25;5090134;28;8870;-73
2023/10/18 00:53:53;;;;;;;;;72.50;56.50;;;;;8.97;49.11;99580.69;5078689;27;8842;-74
2023/10/18 00:56:22;;;;;;;;;71.25;57.75;;;;;8.95;49.31;99573.72;5128694;27;8829;-78
2023/10/18 00:58:58;;;;;;;;;69.25;55.50;;;;;8.96;49.44;99567.59;5126679;27;8843;-74
2023/10/18 01:01:28;;;;;;;;;65.50;53.00;;;;;8.98;49.06;99560.56;5121636;27;8834;-74
2023/10/18 01:03:57;;;;;;;;;66.50;53.75;;;;;8.91;49.45;99544.03;5130536;27;8841;-77
2023/10/18 01:06:28;;;;;;;;;69.75;55.50;;;;;8.90;49.41;99533.59;5077046;27;8841;-79
2023/10/18 01:08:58;;;;;;;;;67.50;53.25;;;;;8.81;49.43;99530.22;5111911;27;8915;-75
2023/10/18 01:11:28;;;;;;;;;61.00;51.00;;;;;8.78;49.32;99526.75;5061583;27;8961;-75
2023/10/18 01:13:59;;;;;;;;;65.00;54.00;;;;;8.77;49.43;99530.28;5123839;27;8846;-74
2023/10/18 01:16:30;;;;;;;;;62.50;50.75;;;;;8.76;49.20;99520.69;5150869;27;8831;-75
2023/10/18 01:19:01;;;;;;;;;57.75;46.25;;;;;8.77;49.11;99531.16;5150492;27;8862;-76
2023/10/18 01:21:32;;;;;;;;;52.50;44.50;;;;;8.80;48.16;99535.50;5080360;27;8943;-78
2023/10/18 01:24:02;;;;;;;;;58.00;46.25;;;;;8.77;48.41;99535.53;5144465;27;8829;-74
2023/10/18 01:26:36;;;;;;;;;54.00;45.25;;;;;8.77;48.71;99531.16;5132892;27;8954;-74
2023/10/18 01:29:08;;;;;;;;;56.00;46.25;;;;;8.50;48.46;99537.63;5117809;27;8849;-72
2023/10/18 01:31:44;;;;;;;;;62.00;49.00;;;;;8.06;50.67;99550.31;5111178;27;9033;-73
2023/10/18 01:34:14;;;;;;;;;57.25;46.50;;;;;8.25;50.19;99545.75;5111549;27;8845;-71
2023/10/18 01:36:44;;;;;;;;;57.50;47.25;;;;;8.27;50.83;99557.06;5077847;27;8841;-76
2023/10/18 01:39:20;;;;;;;;;62.00;49.25;;;;;8.36;50.45;99555.25;5092552;27;8824;-75
2023/10/18 01:41:53;;;;;;;;;66.75;54.00;;;;;8.44;50.77;99550.81;5131928;27;8916;-74
2023/10/18 01:44:30;;;;;;;;;62.50;50.25;;;;;8.47;50.46;99556.00;5123840;27;8861;-73
2023/10/18 01:47:06;;;;;;;;;63.00;52.50;;;;;8.53;50.40;99555.91;5111456;27;8868;-74
2023/10/18 01:49:43;;;;;;;;;65.25;53.75;;;;;8.53;50.98;99568.16;5085937;28;8845;-75
2023/10/18 01:52:17;;;;;;;;;61.50;51.25;;;;;8.57;50.58;99575.09;5068746;28;8872;-74
2023/10/18 01:54:47;;;;;;;;;66.00;52.25;;;;;8.60;50.54;99572.44;5085994;28;8837;-75
2023/10/18 01:57:17;;;;;;;;;65.25;52.25;;;;;8.62;50.90;99568.91;5068891;28;8853;-75
2023/10/18 01:59:48;;;;;;;;;69.25;56.25;;;;;8.64;50.99;99561.88;5070476;28;8844;-74
2023/10/18 02:02:17;;;;;;;;;65.25;53.25;;;;;8.67;51.12;99570.59;5020050;28;8849;-74
2023/10/18 02:04:49;;;;;;;;;72.00;57.25;;;;;8.61;51.21;99582.00;5068870;28;8861;-72
2023/10/18 02:07:22;;;;;;;;;70.25;54.25;;;;;8.60;51.11;99582.91;5048452;28;8851;-75
2023/10/18 02:09:52;;;;;;;;;73.50;57.00;;;;;8.60;51.01;99582.91;5048781;28;8843;-74
2023/10/18 02:12:27;;;;;;;;;70.00;57.00;;;;;8.63;50.97;99590.75;5048639;28;8875;-76
2023/10/18 02:14:56;;;;;;;;;60.50;52.00;;;;;8.61;51.00;99588.16;5022720;28;9665;-74
2023/10/18 02:17:27;;;;;;;;;61.75;50.00;;;;;8.60;50.63;99596.00;5068832;28;8895;-74
2023/10/18 02:19:59;;;;;;;;;66.25;53.50;;;;;8.58;50.74;99590.78;5077973;27;8839;-76
2023/10/18 02:22:28;;;;;;;;;67.00;54.75;;;;;8.55;51.25;99597.81;5114106;27;8851;-75
2023/10/18 02:24:59;;;;;;;;;70.00;56.50;;;;;8.56;51.35;99594.31;5098991;27;8835;-76
2023/10/18 02:27:29;;;;;;;;;69.75;56.00;;;;;8.54;51.26;99594.34;5132055;27;8879;-73
2023/10/18 02:29:58;;;;;;;;;63.75;52.00;;;;;8.53;51.36;99596.97;5129772;27;8847;-74
2023/10/18 02:32:32;;;;;;;;;71.50;56.75;;;;;8.43;51.84;99588.34;5131197;27;8863;-73
2023/10/18 02:35:07;;;;;;;;;72.25;57.00;;;;;8.43;52.04;99599.69;5131098;27;8827;-75
2023/10/18 02:37:37;;;;;;;;;67.75;54.50;;;;;8.39;52.19;99595.38;5091832;27;8956;-72
2023/10/18 02:40:28;;;;;;;;;73.25;57.25;;;;;8.27;52.73;99598.97;5114248;27;8840;-77
2023/10/18 02:42:59;;;;;;;;;72.00;57.00;;;;;7.89;54.70;99596.72;5133194;27;8876;-73
2023/10/18 02:45:30;;;;;;;;;70.50;57.00;;;;;7.92;54.34;99596.69;5114615;27;8872;-75
2023/10/18 02:48:00;;;;;;;;;71.00;56.75;;;;;8.00;53.74;99597.47;5131840;27;8929;-74
2023/10/18 02:50:30;;;;;;;;;64.75;53.50;;;;;8.07;53.12;99598.31;5133268;27;8861;-79
2023/10/18 02:53:00;;;;;;;;;65.50;52.00;;;;;8.11;52.16;99589.53;5122404;27;8977;-75
2023/10/18 02:55:30;;;;;;;;;62.00;48.75;;;;;8.12;51.53;99580.81;5153805;27;8908;-74
2023/10/18 02:58:02;;;;;;;;;57.75;47.00;;;;;8.11;51.15;99586.91;5135095;27;8865;-73
2023/10/18 03:00:34;;;;;;;;;51.50;45.00;;;;;8.08;50.88;99594.81;5083091;27;9628;-76
2023/10/18 03:03:03;;;;;;;;;49.75;42.00;;;;;8.09;50.47;99593.06;5127287;27;8957;-79
2023/10/18 03:05:33;;;;;;;;;43.75;38.00;;;;;8.07;49.40;99579.97;5072050;28;8865;-75
2023/10/18 03:08:04;;;;;;;;;54.50;41.75;;;;;8.08;49.70;99584.34;5077355;28;8855;-76
2023/10/18 03:10:33;;;;;;;;;55.75;46.00;;;;;8.07;49.30;99585.22;5092579;28;8919;-74
2023/10/18 03:13:11;;;;;;;;;51.50;42.75;;;;;8.10;49.24;99579.97;5058680;28;8881;-75
2023/10/18 03:15:52;;;;;;;;;56.00;45.00;;;;;8.07;49.57;99585.22;5073806;28;8850;-76
2023/10/18 03:18:29;;;;;;;;;57.00;46.75;;;;;8.08;50.28;99581.72;5055417;28;8846;-76
2023/10/18 03:20:58;;;;;;;;;59.00;49.00;;;;;8.09;50.92;99574.72;5071820;28;9686;-74
2023/10/18 03:23:27;;;;;;;;;42.50;35.75;;;;;8.08;51.03;99573.88;5026650;28;8848;-74
2023/10/18 03:26:08;;;;;;;;;67.00;52.25;;;;;8.09;51.40;99577.34;5092383;28;8840;-75
2023/10/18 03:28:41;;;;;;;;;61.25;51.75;;;;;8.08;52.13;99576.50;5088839;28;8846;-75
2023/10/18 03:31:21;;;;;;;;;60.75;51.00;;;;;8.05;51.67;99576.50;5088482;28;8900;-75
2023/10/18 03:33:52;;;;;;;;;60.00;50.75;;;;;8.02;51.77;99581.78;5071419;28;9020;-76
2023/10/18 03:36:25;;;;;;;;;64.00;52.25;;;;;7.97;51.61;99581.81;5071547;28;8887;-77
2023/10/18 03:38:55;;;;;;;;;62.50;49.25;;;;;7.96;52.30;99579.22;5093581;28;8819;-76
2023/10/18 03:41:25;;;;;;;;;67.25;52.00;;;;;7.96;51.84;99577.47;5092198;28;8870;-76
2023/10/18 03:44:03;;;;;;;;;66.75;53.50;;;;;7.97;52.42;99573.13;5124497;27;8955;-74
2023/10/18 03:46:46;;;;;;;;;80.50;62.00;;;;;7.95;51.90;99570.50;5134659;27;8839;-74
2023/10/18 03:49:22;;;;;;;;;77.00;61.33;;;;;7.91;52.46;99568.81;5134290;27;8872;-73
2023/10/18 03:51:54;;;;;;;;;78.33;61.67;;;;;7.91;52.20;99576.66;5151572;27;8961;-73
2023/10/18 03:54:26;;;;;;;;;72.75;58.00;;;;;7.90;52.62;99574.06;5086333;27;8946;-77
2023/10/18 03:56:56;;;;;;;;;72.75;55.25;;;;;7.87;52.04;99575.81;5131567;27;9049;-74
2023/10/18 03:59:26;;;;;;;;;70.25;56.50;;;;;7.87;52.47;99573.19;5061538;27;8868;-75
2023/10/18 04:02:05;;;;;;;;;69.00;54.50;;;;;7.83;52.76;99568.84;5132048;27;8818;-77
2023/10/18 04:04:44;;;;;;;;;66.75;55.25;;;;;7.82;52.25;99569.75;5131600;27;9003;-73
2023/10/18 04:07:16;;;;;;;;;69.50;56.75;;;;;7.81;52.60;99572.38;5131610;27;8838;-75
2023/10/18 04:09:47;;;;;;;;;69.00;55.50;;;;;7.80;52.54;99571.50;5136593;27;8873;-76
2023/10/18 04:12:19;;;;;;;;;68.75;55.50;;;;;7.78;52.90;99568.06;5152654;27;8859;-72
2023/10/18 04:14:56;;;;;;;;;85.67;67.67;;;;;7.79;53.32;99564.53;5100219;27;8886;-78
2023/10/18 04:17:36;;;;;;;;;79.33;61.33;;;;;7.79;53.41;99563.69;5080389;27;10143;-77
2023/10/18 04:20:22;;;;;;;;;76.00;61.00;;;;;7.76;53.10;99564.59;5131049;27;9215;-75
2023/10/18 04:22:51;;;;;;;;;76.25;59.25;;;;;7.74;53.28;99565.47;5099943;27;9257;-73
2023/10/18 04:25:26;;;;;;;;;70.50;57.50;;;;;7.75;53.33;99570.69;5114608;27;8849;-75
2023/10/18 04:27:57;;;;;;;;;75.50;59.75;;;;;7.74;53.46;99565.47;5131085;27;8931;-73
2023/10/18 04:30:30;;;;;;;;;67.25;55.00;;;;;7.70;52.95;99564.63;5131009;27;8845;-74
2023/10/18 04:33:00;;;;;;;;;87.75;73.00;;;;;7.66;53.47;99566.41;5112133;27;8846;-74
2023/10/18 04:35:32;;;;;;;;;84.50;70.50;;;;;7.65;53.25;99564.66;5130618;27;10000;-76
2023/10/18 04:38:04;;;;;;;;;67.75;55.00;;;;;7.64;52.69;99572.53;5113429;27;9472;-76
2023/10/18 04:40:35;;;;;;;;;71.50;57.75;;;;;7.64;53.17;99567.28;5130459;27;8849;-77
2023/10/18 04:43:06;;;;;;;;;66.75;53.25;;;;;7.64;53.47;99569.91;5112648;27;8849;-77
2023/10/18 04:45:36;;;;;;;;;67.75;55.00;;;;;7.66;52.95;99570.75;5112380;27;8845;-73
2023/10/18 04:48:14;;;;;;;;;69.25;53.75;;;;;7.67;52.71;99569.91;5130658;27;8837;-74
2023/10/18 04:50:50;;;;;;;;;68.00;52.75;;;;;7.77;52.31;99568.06;5129981;27;8857;-73
2023/10/18 04:53:23;;;;;;;;;73.00;58.25;;;;;7.67;52.02;99564.66;5131967;27;8838;-74
2023/10/18 04:55:52;;;;;;;;;73.75;57.75;;;;;7.62;53.29;99572.53;5097118;27;8874;-75
2023/10/18 04:58:21;;;;;;;;;95.50;87.00;;;;;7.60;53.12;99574.28;5151122;27;8931;-75
2023/10/18 05:00:57;;;;;;;;;86.50;69.25;;;;;7.65;53.00;99575.13;5145609;27;10401;-75
2023/10/18 05:03:30;;;;;;;;;63.75;53.00;;;;;7.66;52.48;99568.16;5127313;27;9520;-78
2023/10/18 05:06:00;;;;;;;;;64.25;53.75;;;;;7.69;52.01;99568.13;5131881;27;8859;-76
2023/10/18 05:08:30;;;;;;;;;72.00;55.25;;;;;7.71;52.16;99566.38;5127688;27;8808;-78
2023/10/18 05:11:22;;;;;;;;;64.25;52.00;;;;;7.72;52.71;99570.72;5126430;27;8819;-77
2023/10/18 05:13:56;;;;;;;;;77.00;62.00;;;;;7.77;51.90;99575.91;5150465;27;8863;-77
2023/10/18 05:16:27;;;;;;;;;171.25;159.75;;;;;7.73;53.07;99582.91;5120789;27;9123;-78
2023/10/18 05:18:57;;;;;;;;;74.75;59.25;;;;;7.73;52.60;99585.53;5112714;27;11544;-76
2023/10/18 05:21:26;;;;;;;;;72.75;57.25;;;;;7.78;52.71;99586.38;5129851;27;9718;-76
2023/10/18 05:23:55;;;;;;;;;75.67;60.33;;;;;7.81;51.99;99588.06;5118763;27;8843;-76
2023/10/18 05:26:26;;;;;;;;;79.67;63.67;;;;;7.85;51.97;99590.66;5150320;27;8928;-73
2023/10/18 05:29:00;;;;;;;;;78.00;62.67;;;;;7.86;52.45;99594.16;5130026;27;9178;-74
2023/10/18 05:31:55;;;;;;;;;78.00;62.67;;;;;7.92;52.16;99590.59;5128564;27;10012;-72
2023/10/18 05:34:37;;;;;;;;;75.75;58.50;;;;;7.96;51.56;99594.94;5129204;27;9775;-74
2023/10/18 05:37:14;;;;;;;;;71.75;57.25;;;;;8.00;51.31;99594.88;5111127;27;8871;-71
2023/10/18 05:40:08;;;;;;;;;70.50;56.00;;;;;8.04;51.23;99598.31;5076298;27;8860;-72
2023/10/18 05:42:36;;;;;;;;;70.00;57.50;;;;;8.11;50.74;99600.00;5076009;27;9626;-72
2023/10/18 05:45:10;;;;;;;;;73.67;59.00;;;;;8.12;50.60;99599.13;5149879;27;8866;-71
2023/10/18 05:47:42;;;;;;;;;74.75;58.75;;;;;8.18;50.42;99592.97;5149787;27;8842;-75
2023/10/18 05:50:14;;;;;;;;;76.50;60.50;;;;;8.23;50.95;99588.53;5150214;27;8966;-74
2023/10/18 05:52:49;;;;;;;;;79.00;61.67;;;;;8.29;50.71;99600.69;5131640;27;8886;-73
2023/10/18 05:55:18;;;;;;;;;78.33;62.33;;;;;8.36;50.57;99592.78;5149837;27;8939;-71
2023/10/18 05:57:46;;;;;;;;;76.00;62.33;;;;;8.43;50.63;99597.06;5149125;27;9244;-74
2023/10/18 06:00:19;;;;;;;;;75.33;61.00;;;;;8.48;50.46;99598.75;5076040;27;9089;-73
2023/10/18 06:02:52;;;;;;;;;79.33;60.67;;;;;8.56;49.81;99595.19;5128995;27;9394;-73
2023/10/18 06:05:22;;;;;;;;;74.75;58.00;;;;;8.59;49.46;99584.69;5093829;27;8923;-74
2023/10/18 06:07:51;;;;;;;;;76.67;61.67;;;;;8.67;49.24;99588.94;5128754;27;8849;-73
2023/10/18 06:10:23;;;;;;;;;72.75;58.75;;;;;8.74;49.26;99586.25;5129076;27;9061;-71
2023/10/18 06:13:05;;;;;;;;;72.50;56.75;;;;;8.79;49.17;99591.41;5128471;27;8865;-71
2023/10/18 06:15:38;;;;;;;;;61.75;50.00;;;;;8.90;48.91;99594.75;5128765;27;8842;-73
2023/10/18 06:18:09;;;;;;;;;73.75;59.00;;;;;8.92;48.77;99592.13;5119622;27;8835;-71
2023/10/18 06:20:39;;;;;;;;;72.00;57.00;;;;;8.99;48.46;99599.03;5144185;27;9673;-76
2023/10/18 06:23:09;;;;;;;;;72.75;57.00;;;;;9.07;48.16;99599.78;5109754;27;8867;-74
2023/10/18 06:25:44;;;;;;;;;66.00;55.00;;;;;9.24;47.89;99595.16;5082523;28;8822;-77
2023/10/18 06:28:20;;;;;;;;;69.75;56.75;;;;;9.32;48.01;99605.53;5081099;28;8872;-75
2023/10/18 06:30:51;;;;;;;;;76.25;58.50;;;;;9.30;47.70;99603.81;5068710;28;9042;-75
2023/10/18 06:33:23;;;;;;;;;64.00;51.50;;;;;9.49;47.26;99599.16;5084778;28;8873;-76
2023/10/18 06:35:52;;;;;;;;;64.75;52.00;;;;;9.40;46.68;99589.66;5047986;28;8868;-78
2023/10/18 06:38:23;;;;;;;;;65.25;53.00;;;;;9.60;46.50;99592.88;5065613;28;8879;-76
2023/10/18 06:40:53;;;;;;;;;61.50;50.50;;;;;9.79;46.16;99608.34;5065000;28;8844;-77
2023/10/18 06:43:36;;;;;;;;;72.00;59.00;;;;;10.01;46.85;99603.59;5065137;28;8971;-76
2023/10/18 06:46:08;;;;;;;;;67.25;54.25;;;;;10.15;46.40;99600.69;5067259;28;8872;-75
2023/10/18 06:48:39;;;;;;;;;56.75;45.00;;;;;10.34;45.28;99603.84;5067595;28;8860;-77
2023/10/18 06:51:17;;;;;;;;;59.25;47.75;;;;;10.45;44.80;99601.88;5032847;28;8880;-77
2023/10/18 06:53:53;;;;;;;;;53.25;45.00;;;;;10.63;44.75;99598.00;5028888;28;8877;-76
2023/10/18 06:56:22;;;;;;;;;55.50;47.00;;;;;10.67;44.44;99610.22;5042297;27;8853;-77
2023/10/18 06:58:53;;;;;;;;;54.00;45.25;;;;;10.85;43.85;99603.72;5068936;28;8884;-76
2023/10/18 07:01:26;;;;;;;;;65.75;53.00;;;;;11.00;44.13;99597.28;5099962;28;8872;-75
2023/10/18 07:03:56;;;;;;;;;61.50;50.50;;;;;11.15;43.27;99598.69;5102045;27;8865;-78
2023/10/18 07:06:29;;;;;;;;;64.75;53.25;;;;;11.16;43.09;99603.03;5091155;28;8878;-76
2023/10/18 07:08:59;;;;;;;;;61.25;49.25;;;;;11.14;42.59;99597.84;5105417;28;9001;-76
2023/10/18 07:11:30;;;;;;;;;58.00;48.00;;;;;11.30;42.86;99611.50;5105787;28;8916;-78
2023/10/18 07:14:04;;;;;;;;;53.25;45.25;;;;;11.52;42.21;99611.00;5105273;28;9079;-76
2023/10/18 07:16:38;;;;;;;;;60.25;49.25;;;;;11.68;42.17;99617.63;5105114;28;8855;-76
2023/10/18 07:19:24;;;;;;;;;54.25;44.00;;;;;11.83;41.71;99615.56;5088201;28;8996;-73
2023/10/18 07:21:55;;;;;;;;;52.25;42.25;;;;;11.95;41.89;99615.25;5054115;28;8918;-75
2023/10/18 07:24:32;;;;;;;;;49.00;41.25;;;;;12.02;41.65;99611.56;5105902;28;8893;-73
2023/10/18 07:27:03;;;;;;;;;52.00;43.00;;;;;11.90;41.72;99611.84;5108556;28;8879;-75
2023/10/18 07:29:36;;;;;;;;;54.25;45.50;;;;;12.02;41.10;99608.91;5143843;27;8855;-76
2023/10/18 07:32:12;;;;;;;;;51.75;42.75;;;;;12.03;41.22;99602.75;5124348;27;8876;-76
2023/10/18 07:34:43;;;;;;;;;56.25;45.00;;;;;12.07;41.64;99603.50;5146763;27;8857;-74
2023/10/18 07:37:19;;;;;;;;;51.00;43.50;;;;;12.05;41.10;99597.41;5123996;27;8851;-75
2023/10/18 07:39:56;;;;;;;;;51.75;44.25;;;;;12.00;41.28;99594.06;5120338;27;8950;-73
2023/10/18 07:42:27;;;;;;;;;53.75;45.25;;;;;11.98;40.54;99593.25;5141027;27;8945;-76
2023/10/18 07:45:04;;;;;;;;;47.25;40.25;;;;;12.09;40.77;99596.47;5146167;27;8984;-73
2023/10/18 07:47:37;;;;;;;;;50.75;43.75;;;;;12.10;40.54;99592.91;5087874;28;8837;-76
2023/10/18 07:52:54;;;;;;;;;50.75;41.75;;;;;12.36;39.86;99596.63;5083612;28;9017;-76
2023/10/18 07:55:23;;;;;;;;;48.00;38.50;;;;;12.47;39.57;99584.00;5071653;28;8971;-78
2023/10/18 07:57:54;;;;;;;;;47.25;40.25;;;;;12.46;38.97;99583.13;5083880;28;8835;-78
2023/10/18 08:00:26;;;;;;;;;45.25;38.50;;;;;12.47;38.51;99586.66;5089515;28;8842;-75
2023/10/18 08:02:56;;;;;;;;;42.75;37.25;;;;;12.58;39.01;99597.75;5088551;28;8899;-77
2023/10/18 08:05:31;;;;;;;;;38.20;34.80;;;;;12.57;38.57;99593.38;5088561;28;8874;-77
2023/10/18 08:08:08;;;;;;;;;36.40;32.00;;;;;12.64;38.15;99596.72;5066685;28;8957;-76
2023/10/18 08:10:38;;;;;;;;;26.20;26.20;;;;;12.67;37.34;99600.09;5088035;28;8846;-76
2023/10/18 08:13:08;;;;;;;;;29.00;27.80;;;;;12.67;37.68;99592.19;5083074;28;9573;-77
2023/10/18 08:15:37;;;;;;;;;28.00;27.20;;;;;12.81;37.39;99593.59;5089751;28;8825;-77
2023/10/18 08:18:15;;;;;;;;;31.40;29.80;;;;;12.78;37.72;99589.25;5098576;27;9578;-80
2023/10/18 08:21:06;;;;;;;;;28.80;26.80;;;;;12.78;37.27;99583.97;5146160;27;8846;-78
2023/10/18 08:23:35;;;;;;;;;33.20;29.80;;;;;12.83;37.77;99579.44;5133081;27;8881;-78
2023/10/18 08:26:07;;;;;;;;;32.40;30.20;;;;;12.82;37.49;99580.31;5136270;27;8851;-82
2023/10/18 08:28:40;;;;;;;;;31.00;28.60;;;;;12.82;37.44;99582.09;5141754;27;8819;-79
2023/10/18 08:31:16;;;;;;;;;38.00;32.00;;;;;12.78;37.44;99580.47;5134948;27;9694;-76
2023/10/18 08:33:46;;;;;;;;;32.20;31.60;;;;;12.77;37.17;99584.91;5095712;27;8838;-78
2023/10/18 08:36:29;;;;;;;;;33.20;31.20;;;;;12.82;38.00;99587.38;5116953;27;8864;-80
2023/10/18 08:38:58;;;;;;;;;28.40;25.20;;;;;12.97;37.53;99586.09;5113124;27;8829;-78
2023/10/18 08:41:32;;;;;;;;;27.80;25.40;;;;;12.95;37.71;99586.13;5133978;27;8865;-76
2023/10/18 08:44:15;;;;;;;;;29.40;28.40;;;;;12.95;37.83;99587.91;5122678;27;8860;-76
2023/10/18 08:46:52;;;;;;;;;27.80;26.20;;;;;13.00;37.43;99586.03;5146182;27;8837;-78
2023/10/18 08:49:23;;;;;;;;;30.60;29.60;;;;;13.18;37.25;99585.44;5144461;27;8844;-76
2023/10/18 08:52:04;;;;;;;;;32.50;31.75;;;;;13.22;37.35;99581.81;5119190;27;8855;-78
2023/10/18 08:54:36;;;;;;;;;23.80;23.00;;;;;13.23;37.00;99575.59;5133156;27;8873;-77
2023/10/18 08:57:08;;;;;;;;;31.20;28.80;;;;;13.35;37.11;99569.06;5112426;27;8846;-76
2023/10/18 08:59:45;;;;;;;;;30.60;27.40;;;;;13.31;36.64;99573.56;5112325;27;8868;-77
2023/10/18 09:02:18;;;;;;;;;29.20;27.60;;;;;13.42;36.46;99565.31;5100929;27;8855;-77
2023/10/18 09:04:52;;;;;;;;;30.60;28.40;;;;;13.55;36.44;99552.56;5119548;27;8821;-78
2023/10/18 09:10:32;;;;;;;;;27.40;24.60;;;;;13.51;36.26;99551.81;5144951;27;8851;-77
2023/10/18 09:16:01;;;;;;;;;22.80;22.80;;;;;13.61;34.23;99547.09;5134762;27;8849;-76
2023/10/18 09:18:32;;;;;;;;;25.00;23.80;;;;;13.63;35.01;99544.41;5145680;27;8847;-78
2023/10/18 09:21:07;;;;;;;;;23.00;21.20;;;;;13.55;35.24;99542.00;5120529;27;8843;-77
2023/10/18 09:23:40;;;;;;;;;30.00;28.20;;;;;13.57;35.45;99544.59;5138065;27;8989;-79
2023/10/18 09:26:12;;;;;;;;;27.60;24.80;;;;;13.53;35.80;99537.72;5104153;27;8816;-77
2023/10/18 09:28:42;;;;;;;;;25.40;25.00;;;;;13.48;35.59;99543.13;5140955;27;8852;-77
2023/10/18 09:31:18;;;;;;;;;26.00;25.80;;;;;13.59;35.75;99538.34;5114711;27;8842;-77
2023/10/18 09:33:50;;;;;;;;;29.60;26.40;;;;;13.55;36.07;99536.72;5149881;27;8843;-81
2023/10/18 09:36:23;;;;;;;;;25.00;25.00;;;;;13.69;36.14;99537.16;5111590;27;8853;-79
2023/10/18 09:38:55;;;;;;;;;30.20;27.80;;;;;13.68;36.27;99537.19;5112366;27;9615;-77
2023/10/18 09:41:27;;;;;;;;;27.80;24.40;;;;;13.70;36.38;99532.72;5114372;27;8834;-79
2023/10/18 09:44:00;;;;;;;;;30.00;27.40;;;;;13.74;36.66;99538.75;5123756;27;8858;-77
2023/10/18 09:46:31;;;;;;;;;29.20;27.40;;;;;13.76;36.31;99534.28;5094919;27;8900;-77
2023/10/18 09:49:04;;;;;;;;;32.80;29.00;;;;;13.83;36.26;99533.19;5094539;27;8850;-76
2023/10/18 09:51:36;;;;;;;;;25.20;24.80;;;;;13.84;36.47;99522.53;5107918;27;8832;-79
2023/10/18 09:54:08;;;;;;;;;28.20;27.20;;;;;14.00;36.34;99520.25;5120689;27;8852;-79
2023/10/18 09:56:38;;;;;;;;;32.40;27.20;;;;;14.02;36.12;99521.06;5091512;27;8849;-78
2023/10/18 09:59:08;;;;;;;;;29.60;27.60;;;;;14.16;36.51;99517.91;5115040;27;8837;-77
2023/10/18 10:04:32;;;;;;;;;31.20;29.20;;;;;14.36;35.84;99511.91;5078831;28;8843;-75
2023/10/18 10:09:59;;;;;;;;;24.80;22.60;;;;;14.53;35.35;99513.03;5073085;28;8844;-77
2023/10/18 10:12:29;;;;;;;;;26.40;25.80;;;;;14.61;35.23;99511.81;5089379;28;8843;-78
2023/10/18 10:14:58;;;;;;;;;26.00;24.00;;;;;14.66;35.23;99499.28;5106692;28;8856;-77
2023/10/18 10:17:30;;;;;;;;;28.20;25.60;;;;;14.78;34.97;99495.34;5089016;28;8863;-78
2023/10/18 10:20:10;;;;;;;;;23.40;23.40;;;;;14.83;34.46;99492.53;5092520;28;9026;-80
2023/10/18 10:22:42;;;;;;;;;25.20;24.20;;;;;14.81;34.70;99482.00;5075809;28;8882;-77
2023/10/18 10:25:19;;;;;;;;;30.00;28.40;;;;;14.92;34.41;99489.47;5106194;28;8935;-78
2023/10/18 10:28:15;;;;;;;;;26.00;22.80;;;;;14.91;34.19;99481.63;5106976;28;8824;-80
2023/10/18 10:30:43;;;;;;;;;22.80;21.40;;;;;15.00;34.19;99475.94;5101434;28;9728;-77
2023/10/18 10:33:13;;;;;;;;;20.20;19.80;;;;;15.05;34.04;99477.47;5081207;28;8872;-78
2023/10/18 10:35:47;;;;;;;;;22.20;21.20;;;;;15.25;33.87;99476.66;5107560;28;8908;-80
2023/10/18 10:38:20;;;;;;;;;22.80;21.60;;;;;15.38;33.39;99471.72;5074592;28;8844;-77
2023/10/18 10:41:10;;;;;;;;;26.40;22.80;;;;;15.51;33.15;99464.13;5092100;27;8855;-79
2023/10/18 10:44:10;;;;;;;;;24.80;23.40;;;;;15.63;33.53;99465.41;5068980;28;9605;-80
2023/10/18 10:46:39;;;;;;;;;25.20;23.20;;;;;15.63;32.92;99463.63;5069460;28;8923;-78
2023/10/18 10:49:41;;;;;;;;;20.80;20.80;;;;;15.83;32.61;99467.19;5036688;28;8846;-77
2023/10/18 10:52:10;;;;;;;;;24.60;24.60;;;;;15.76;32.65;99461.31;5085285;28;8854;-79
2023/10/18 10:54:40;;;;;;;;;23.60;23.60;;;;;15.85;32.96;99457.41;5069224;28;9730;-77
2023/10/18 10:57:10;;;;;;;;;25.20;22.80;;;;;15.98;32.76;99453.28;5051747;28;8857;-77
2023/10/18 10:59:41;;;;;;;;;21.60;21.60;;;;;16.11;32.78;99452.69;5070153;28;8981;-79
2023/10/18 11:02:11;;;;;;;;;22.00;20.20;;;;;16.27;32.32;99448.44;5072730;28;8842;-77
2023/10/18 11:04:59;;;;;;;;;23.40;23.20;;;;;16.46;32.16;99439.66;5072156;28;8861;-72
2023/10/18 11:07:29;;;;;;;;;23.80;22.60;;;;;16.55;32.26;99445.38;5088198;28;10157;-70
2023/10/18 11:10:06;;;;;;;;;20.60;20.60;;;;;16.64;32.75;99437.91;5088579;28;8865;-71
2023/10/18 11:12:37;;;;;;;;;21.60;19.60;;;;;16.72;32.46;99433.97;5088996;28;8883;-72
2023/10/18 11:15:16;;;;;;;;;18.40;18.00;;;;;16.83;32.10;99444.03;5089045;28;9636;-72
2023/10/18 11:17:47;;;;;;;;;20.40;19.40;;;;;17.00;32.23;99432.59;5058262;28;8859;-71
2023/10/18 11:20:29;;;;;;;;;19.00;18.80;;;;;17.16;31.84;99422.94;5053878;28;8879;-74
2023/10/18 11:22:58;;;;;;;;;23.40;22.40;;;;;17.36;31.39;99421.97;5059735;28;8845;-71
2023/10/18 11:25:33;;;;;;;;;23.40;19.80;;;;;17.48;31.36;99423.13;5088795;28;8988;-72
2023/10/18 11:30:53;;;;;;;;;20.80;19.80;;;;;17.84;30.36;99413.31;5023630;28;8876;-72
2023/10/18 11:33:36;;;;;;;;;20.00;17.40;;;;;18.07;30.53;99409.44;5027033;28;8857;-72
2023/10/18 11:36:08;;;;;;;;;22.40;22.40;;;;;18.00;30.69;99405.34;5027904;28;9696;-72
2023/10/18 11:38:38;;;;;;;;;25.40;23.20;;;;;18.26;30.09;99415.47;4996570;28;8860;-77
2023/10/18 11:41:11;;;;;;;;;21.20;21.20;;;;;18.29;30.12;99412.63;4996358;28;8868;-73
2023/10/18 11:43:52;;;;;;;;;21.40;20.60;;;;;18.39;30.29;99409.47;5068721;28;8917;-73
2023/10/18 11:46:21;;;;;;;;;19.60;19.60;;;;;18.27;30.14;99395.91;5068503;28;8867;-73
2023/10/18 11:48:55;;;;;;;;;19.80;19.00;;;;;18.43;30.17;99409.19;5067973;28;8928;-75
2023/10/18 11:51:25;;;;;;;;;19.40;19.40;;;;;18.43;30.13;99403.03;5052287;28;8843;-74
2023/10/18 11:53:54;;;;;;;;;19.20;19.20;;;;;18.11;30.94;99403.84;5052136;28;9154;-74
2023/10/18 11:56:26;;;;;;;;;19.60;19.40;;;;;18.09;31.00;99397.75;5035264;28;8864;-76
2023/10/18 11:59:03;;;;;;;;;22.40;20.80;;;;;18.02;30.98;99393.69;5051074;28;8872;-75
2023/10/18 12:01:34;;;;;;;;;25.40;21.80;;;;;18.05;31.30;99384.72;5068021;28;8828;-74
2023/10/18 12:04:06;;;;;;;;;23.20;22.20;;;;;17.90;31.14;99381.91;5068223;28;8941;-73
2023/10/18 12:06:36;;;;;;;;;21.80;21.80;;;;;17.85;31.67;99372.47;5067824;28;8855;-72
2023/10/18 12:11:54;;;;;;;;;23.60;23.60;;;;;17.61;32.14;99359.56;5087473;27;8841;-72
2023/10/18 12:14:24;;;;;;;;;27.60;26.80;;;;;17.63;31.93;99351.47;5131344;27;8957;-74
2023/10/18 12:16:54;;;;;;;;;22.00;22.00;;;;;17.67;31.85;99358.38;5131244;27;8964;-74